Time;durP1;ratioP1;P1;durP2;ratioP2;P2;SDS_P1;SDS_P2;PMS_P1;PMS_P2;Temp;Humidity;BMP_temperature;BMP_pressure;BME280_temperature;BME280_humidity;BME280_pressure;Samples;Min_cycle;Max_cycle;Signal;HPM_P1;HPM_P2
2023/05/11 00:00:15;;;;;;;8.30;7.90;;;14.10;36.00;;;;;;5048120;28;20254;-73
2023/05/11 00:02:41;;;;;;;7.73;7.53;;;14.10;35.50;;;;;;5063827;28;20217;-73
2023/05/11 00:05:08;;;;;;;8.47;8.17;;;14.20;35.70;;;;;;5064189;28;20168;-72
2023/05/11 00:07:34;;;;;;;8.30;8.10;;;14.10;35.90;;;;;;5045922;28;20425;-73
2023/05/11 00:10:00;;;;;;;8.60;8.30;;;14.20;35.90;;;;;;5063617;28;20406;-73
2023/05/11 00:12:25;;;;;;;8.10;7.83;;;14.10;35.80;;;;;;5063201;28;20426;-71
2023/05/11 00:14:51;;;;;;;8.83;8.50;;;14.20;35.30;;;;;;5065362;28;20170;-72
2023/05/11 00:17:18;;;;;;;8.90;8.60;;;14.20;35.90;;;;;;5065120;28;20679;-72
2023/05/11 00:19:43;;;;;;;8.60;8.30;;;14.20;35.30;;;;;;5045791;28;20718;-71
2023/05/11 00:22:09;;;;;;;8.53;8.33;;;14.10;36.30;;;;;;5063168;28;20481;-72
2023/05/11 00:24:35;;;;;;;8.53;8.23;;;14.10;36.20;;;;;;5062983;28;20210;-74
2023/05/11 00:27:00;;;;;;;9.10;8.60;;;14.00;36.20;;;;;;5063502;28;20182;-72
2023/05/11 00:29:25;;;;;;;8.80;8.40;;;14.00;36.50;;;;;;5063194;28;20740;-72
2023/05/11 00:31:51;;;;;;;7.90;7.70;;;14.00;36.80;;;;;;5063777;28;20243;-73
2023/05/11 00:34:17;;;;;;;8.53;8.23;;;13.90;36.40;;;;;;5065451;28;20202;-74
2023/05/11 00:36:43;;;;;;;9.23;8.93;;;13.90;36.90;;;;;;5063526;28;20281;-74
2023/05/11 00:39:10;;;;;;;8.87;8.47;;;13.90;36.90;;;;;;5045778;28;20414;-74
2023/05/11 00:41:36;;;;;;;8.70;8.23;;;13.90;37.10;;;;;;5063490;28;20177;-72
2023/05/11 00:44:01;;;;;;;8.33;8.10;;;14.00;36.60;;;;;;5063285;28;21462;-73
2023/05/11 00:46:27;;;;;;;8.60;8.40;;;14.00;36.50;;;;;;5061521;28;20176;-74
2023/05/11 00:48:53;;;;;;;8.73;8.40;;;14.10;36.30;;;;;;5044917;28;20186;-73
2023/05/11 00:51:20;;;;;;;8.37;8.07;;;14.10;36.00;;;;;;5063728;28;20494;-73
2023/05/11 00:53:45;;;;;;;8.40;8.20;;;14.20;35.40;;;;;;5062431;28;20248;-74
2023/05/11 00:56:11;;;;;;;9.40;9.00;;;14.20;35.70;;;;;;5045560;28;20439;-72
2023/05/11 00:58:37;;;;;;;9.27;8.87;;;14.20;35.80;;;;;;5063531;28;20206;-73
2023/05/11 01:01:03;;;;;;;8.20;7.80;;;14.10;35.70;;;;;;5062198;28;20438;-73
2023/05/11 01:03:28;;;;;;;8.93;8.63;;;14.00;36.50;;;;;;5063870;28;20726;-71
2023/05/11 01:06:09;;;;;;;9.27;8.83;;;13.90;36.70;;;;;;5063196;28;20193;-72
2023/05/11 01:08:55;;;;;;;9.20;8.90;;;13.90;37.10;;;;;;5060510;28;20649;-71
2023/05/11 01:11:50;;;;;;;9.20;8.90;;;13.90;37.20;;;;;;5061544;28;20405;-72
2023/05/11 01:14:30;;;;;;;8.70;8.40;;;13.90;37.10;;;;;;5063849;28;20426;-72
2023/05/11 01:17:06;;;;;;;9.10;8.80;;;13.90;37.20;;;;;;5061800;28;20406;-71
2023/05/11 01:19:47;;;;;;;9.00;8.60;;;13.80;37.40;;;;;;5062150;28;20413;-72
2023/05/11 01:22:45;;;;;;;8.83;8.53;;;13.90;37.30;;;;;;5062289;28;20464;-72
2023/05/11 01:25:23;;;;;;;8.97;8.67;;;13.90;37.10;;;;;;5062951;28;20406;-73
2023/05/11 01:28:20;;;;;;;9.13;8.83;;;13.80;37.00;;;;;;5042690;28;20982;-73
2023/05/11 01:30:53;;;;;;;8.60;8.40;;;13.80;37.30;;;;;;5061316;28;20417;-73
2023/05/11 01:33:29;;;;;;;8.63;8.33;;;13.80;36.80;;;;;;5063229;28;20924;-72
2023/05/11 01:36:02;;;;;;;8.67;8.17;;;13.80;36.90;;;;;;5062050;28;20459;-73
2023/05/11 01:38:36;;;;;;;8.70;8.40;;;13.70;37.10;;;;;;5060998;28;20421;-72
2023/05/11 01:41:08;;;;;;;9.00;8.70;;;13.80;36.90;;;;;;5061021;28;20405;-71
2023/05/11 01:43:36;;;;;;;9.27;9.00;;;13.90;37.00;;;;;;5062946;28;21047;-72
2023/05/11 01:46:03;;;;;;;8.87;8.57;;;13.90;36.30;;;;;;5062404;28;20436;-72
2023/05/11 01:48:32;;;;;;;8.73;8.37;;;13.80;36.90;;;;;;5061695;28;20869;-72
2023/05/11 01:51:01;;;;;;;8.60;8.33;;;13.90;36.90;;;;;;5044298;28;20406;-72
2023/05/11 01:53:30;;;;;;;8.87;8.47;;;14.00;36.30;;;;;;5060917;28;20562;-72
2023/05/11 01:55:57;;;;;;;9.33;8.83;;;14.00;35.90;;;;;;5061941;28;20417;-72
2023/05/11 01:58:23;;;;;;;8.70;8.13;;;13.80;36.10;;;;;;5060864;28;20433;-72
2023/05/11 02:00:50;;;;;;;9.87;9.37;;;13.90;36.90;;;;;;5062136;28;20888;-71
2023/05/11 02:03:17;;;;;;;8.90;8.60;;;13.90;35.60;;;;;;5061431;28;20973;-74
2023/05/11 02:05:46;;;;;;;9.47;8.70;;;13.90;36.20;;;;;;5042672;28;20914;-72
2023/05/11 02:08:13;;;;;;;8.90;8.60;;;14.00;35.50;;;;;;5061317;28;20402;-74
2023/05/11 02:10:40;;;;;;;9.67;9.37;;;13.80;35.50;;;;;;5060989;28;20408;-72
2023/05/11 02:13:08;;;;;;;9.33;9.03;;;13.80;36.20;;;;;;5060429;28;20438;-73
2023/05/11 02:15:38;;;;;;;8.73;8.43;;;13.80;35.80;;;;;;5060137;28;20845;-73
2023/05/11 02:18:08;;;;;;;8.80;8.20;;;13.80;36.10;;;;;;5043834;28;20421;-72
2023/05/11 02:20:35;;;;;;;8.73;8.53;;;13.90;35.90;;;;;;5061914;28;20824;-71
2023/05/11 02:23:01;;;;;;;9.43;9.13;;;13.90;35.70;;;;;;5059147;28;20465;-74
2023/05/11 02:25:28;;;;;;;8.80;8.50;;;14.00;35.90;;;;;;5063465;28;20770;-71
2023/05/11 02:27:54;;;;;;;9.30;9.00;;;13.90;35.10;;;;;;5061801;28;20413;-72
2023/05/11 02:30:19;;;;;;;8.90;8.67;;;14.00;35.60;;;;;;5060719;28;20405;-72
2023/05/11 02:32:51;;;;;;;9.23;8.93;;;14.10;35.10;;;;;;5059395;28;20199;-72
2023/05/11 02:35:22;;;;;;;9.17;8.73;;;13.90;34.90;;;;;;5060190;28;20183;-72
2023/05/11 02:37:49;;;;;;;9.30;8.97;;;14.00;35.60;;;;;;5058967;28;20504;-73
2023/05/11 02:40:23;;;;;;;9.30;9.00;;;14.10;35.10;;;;;;5060377;28;20432;-74
2023/05/11 02:42:55;;;;;;;8.87;8.57;;;14.20;34.90;;;;;;5061954;28;20464;-72
2023/05/11 02:45:23;;;;;;;9.17;8.90;;;14.10;35.10;;;;;;5060186;28;20405;-74
2023/05/11 02:47:53;;;;;;;9.20;8.90;;;14.00;35.70;;;;;;5058628;28;20420;-75
2023/05/11 02:50:23;;;;;;;8.97;8.67;;;13.90;34.90;;;;;;5063079;28;21174;-73
2023/05/11 02:52:49;;;;;;;9.00;8.73;;;13.90;35.80;;;;;;5060480;28;20440;-72
2023/05/11 02:55:16;;;;;;;9.70;9.30;;;13.80;36.20;;;;;;5058867;28;20958;-72
2023/05/11 02:57:44;;;;;;;9.20;8.90;;;13.70;36.20;;;;;;5060407;28;20955;-73
2023/05/11 03:00:10;;;;;;;9.27;8.97;;;13.60;36.80;;;;;;5060977;28;20781;-73
2023/05/11 03:02:36;;;;;;;8.43;8.23;;;13.70;37.00;;;;;;5060044;28;20461;-73
2023/05/11 03:05:01;;;;;;;9.23;8.93;;;13.60;36.60;;;;;;5041188;28;20406;-72
2023/05/11 03:07:27;;;;;;;10.00;9.57;;;13.70;36.50;;;;;;5060740;28;20179;-73
2023/05/11 03:09:53;;;;;;;9.57;9.27;;;13.60;36.80;;;;;;5060216;28;20250;-72
2023/05/11 03:12:20;;;;;;;9.80;9.50;;;13.60;36.80;;;;;;5060377;28;20191;-73
2023/05/11 03:14:46;;;;;;;9.93;9.63;;;13.70;37.40;;;;;;5063376;28;20174;-73
2023/05/11 03:17:12;;;;;;;9.30;9.00;;;13.70;37.10;;;;;;5059740;28;20489;-73
2023/05/11 03:19:40;;;;;;;9.33;9.03;;;13.60;37.10;;;;;;5061069;28;20410;-71
2023/05/11 03:22:07;;;;;;;9.23;8.93;;;13.50;37.50;;;;;;5061312;28;20406;-73
2023/05/11 03:24:33;;;;;;;9.47;9.17;;;13.50;37.50;;;;;;5062187;28;20414;-73
2023/05/11 03:27:00;;;;;;;10.40;10.07;;;13.50;37.80;;;;;;5058635;28;20406;-73
2023/05/11 03:29:26;;;;;;;10.27;9.93;;;13.60;37.80;;;;;;5058784;28;20978;-72
2023/05/11 03:31:53;;;;;;;9.80;9.50;;;13.60;37.50;;;;;;5060897;28;20790;-72
2023/05/11 03:34:19;;;;;;;8.73;8.50;;;13.60;37.90;;;;;;5059621;28;20436;-73
2023/05/11 03:36:47;;;;;;;9.57;9.27;;;13.50;37.90;;;;;;5059497;28;20414;-73
2023/05/11 03:39:15;;;;;;;9.47;9.17;;;13.50;38.30;;;;;;5060372;28;20410;-73
2023/05/11 03:41:43;;;;;;;9.40;9.10;;;13.50;38.40;;;;;;5060077;28;20414;-74
2023/05/11 03:44:10;;;;;;;9.40;9.10;;;13.50;38.60;;;;;;5040186;28;20468;-72
2023/05/11 03:46:39;;;;;;;9.47;9.17;;;13.40;38.60;;;;;;5062880;28;20423;-72
2023/05/11 03:49:06;;;;;;;9.03;8.73;;;13.40;38.60;;;;;;5063552;28;20409;-72
2023/05/11 03:51:33;;;;;;;9.50;9.20;;;13.40;38.70;;;;;;5064902;28;20779;-72
2023/05/11 03:53:59;;;;;;;9.67;9.37;;;13.50;38.70;;;;;;5062466;28;20506;-73
2023/05/11 03:56:24;;;;;;;9.60;9.30;;;13.40;38.30;;;;;;5062676;28;20417;-73
2023/05/11 03:58:51;;;;;;;9.93;9.63;;;13.50;38.30;;;;;;5063577;28;20551;-73
2023/05/11 04:01:17;;;;;;;9.90;9.50;;;13.50;38.50;;;;;;5062837;28;20268;-72
2023/05/11 04:03:48;;;;;;;10.00;9.60;;;13.50;37.80;;;;;;5064653;28;20460;-72
2023/05/11 04:06:15;;;;;;;10.60;10.10;;;13.40;37.80;;;;;;5064718;28;20507;-72
2023/05/11 04:08:41;;;;;;;10.10;9.70;;;13.40;38.20;;;;;;5066262;28;20930;-72
2023/05/11 04:11:06;;;;;;;10.53;10.17;;;13.40;38.20;;;;;;5046264;28;20455;-73
2023/05/11 04:13:32;;;;;;;10.30;9.90;;;13.40;38.30;;;;;;5066315;28;20241;-72
2023/05/11 04:15:57;;;;;;;10.27;9.97;;;13.40;38.20;;;;;;5067814;28;20179;-72
2023/05/11 04:18:23;;;;;;;10.80;10.50;;;13.40;38.30;;;;;;5047281;28;20175;-73
2023/05/11 04:20:48;;;;;;;10.60;10.30;;;13.30;38.20;;;;;;5065603;28;20175;-73
2023/05/11 04:23:14;;;;;;;10.40;10.00;;;13.30;38.30;;;;;;5066342;28;20206;-72
2023/05/11 04:25:40;;;;;;;10.87;10.53;;;13.40;38.40;;;;;;5069138;28;20582;-72
2023/05/11 04:28:05;;;;;;;10.53;10.23;;;13.50;38.20;;;;;;5069131;28;20414;-73
2023/05/11 04:30:31;;;;;;;10.50;10.17;;;13.60;37.10;;;;;;5068846;28;20195;-73
2023/05/11 04:32:56;;;;;;;10.03;9.73;;;13.70;37.60;;;;;;5069283;28;20317;-72
2023/05/11 04:35:23;;;;;;;10.43;10.10;;;13.70;36.40;;;;;;5071128;28;20600;-74
2023/05/11 04:37:49;;;;;;;10.70;10.20;;;13.70;36.90;;;;;;5069821;28;20513;-74
2023/05/11 04:40:14;;;;;;;11.10;10.70;;;13.60;36.70;;;;;;5070157;28;20417;-73
2023/05/11 04:42:40;;;;;;;9.53;9.23;;;13.50;37.80;;;;;;5069275;28;20286;-70
2023/05/11 04:45:09;;;;;;;10.80;10.40;;;13.60;37.00;;;;;;5072616;28;20710;-72
2023/05/11 04:47:35;;;;;;;10.23;9.83;;;13.80;36.90;;;;;;5072056;28;20232;-72
2023/05/11 04:50:00;;;;;;;9.13;8.83;;;13.90;36.00;;;;;;5072632;28;20492;-72
2023/05/11 04:52:26;;;;;;;9.67;9.33;;;13.90;35.90;;;;;;5069562;28;20194;-72
2023/05/11 04:54:51;;;;;;;10.23;9.83;;;13.80;35.60;;;;;;5071414;28;20191;-73
2023/05/11 04:57:17;;;;;;;10.67;10.27;;;13.70;36.50;;;;;;5072241;28;20175;-72
2023/05/11 04:59:43;;;;;;;10.10;9.33;;;13.70;36.70;;;;;;5054852;28;20181;-72
2023/05/11 05:02:08;;;;;;;10.00;9.70;;;13.60;37.40;;;;;;5072042;28;20187;-72
2023/05/11 05:04:34;;;;;;;10.77;10.17;;;13.60;37.20;;;;;;5071832;28;20167;-73
2023/05/11 05:06:59;;;;;;;10.03;9.73;;;13.50;37.60;;;;;;5071861;28;20174;-74
2023/05/11 05:09:25;;;;;;;10.53;10.13;;;13.60;37.10;;;;;;5074052;28;20156;-71
2023/05/11 05:11:50;;;;;;;10.70;10.30;;;13.60;37.20;;;;;;5073334;28;20168;-72
2023/05/11 05:14:16;;;;;;;9.70;9.40;;;13.80;37.40;;;;;;5074802;28;20202;-74
2023/05/11 05:16:42;;;;;;;10.40;10.00;;;13.90;36.80;;;;;;5072580;28;20187;-73
2023/05/11 05:19:08;;;;;;;11.20;10.77;;;14.00;35.90;;;;;;5075016;28;20202;-72
2023/05/11 05:21:34;;;;;;;10.70;10.17;;;13.90;36.20;;;;;;5073199;28;20171;-72
2023/05/11 05:24:00;;;;;;;11.13;10.73;;;13.80;36.30;;;;;;5072441;28;20896;-72
2023/05/11 05:26:26;;;;;;;11.30;10.63;;;13.90;36.20;;;;;;5073770;28;20418;-72
2023/05/11 05:28:51;;;;;;;11.67;11.27;;;13.90;36.10;;;;;;5072555;28;20454;-72
2023/05/11 05:31:17;;;;;;;11.30;10.80;;;13.80;36.20;;;;;;5073919;28;20184;-72
2023/05/11 05:33:42;;;;;;;10.93;10.53;;;13.90;36.80;;;;;;5072726;28;20211;-72
2023/05/11 05:36:08;;;;;;;10.40;9.90;;;14.00;36.60;;;;;;5072877;28;20186;-72
2023/05/11 05:38:33;;;;;;;10.00;9.70;;;14.00;35.10;;;;;;5073555;28;20183;-71
2023/05/11 05:40:59;;;;;;;9.50;9.20;;;13.80;36.40;;;;;;5069654;28;20545;-73
2023/05/11 05:43:25;;;;;;;10.17;9.87;;;13.70;37.00;;;;;;5071186;28;20256;-72
2023/05/11 05:45:50;;;;;;;10.80;10.30;;;13.70;37.30;;;;;;5071253;28;20422;-72
2023/05/11 05:48:16;;;;;;;10.87;10.37;;;13.70;37.50;;;;;;5079920;28;20175;-72
2023/05/11 05:50:41;;;;;;;10.43;10.00;;;13.70;37.60;;;;;;5072540;28;20254;-73
2023/05/11 05:53:07;;;;;;;10.23;9.83;;;13.70;37.50;;;;;;5071735;28;20723;-73
2023/05/11 05:55:32;;;;;;;9.17;8.87;;;13.70;37.40;;;;;;5065725;28;20786;-73
2023/05/11 05:57:58;;;;;;;10.20;9.80;;;13.80;37.40;;;;;;5049836;28;20195;-72
2023/05/11 06:00:23;;;;;;;10.37;9.77;;;13.90;37.10;;;;;;5071555;28;20209;-73
2023/05/11 06:02:49;;;;;;;10.40;9.90;;;13.70;37.70;;;;;;5071810;28;20215;-75
2023/05/11 06:05:14;;;;;;;10.57;9.87;;;13.70;37.70;;;;;;5072554;28;20175;-74
2023/05/11 06:07:40;;;;;;;9.67;9.27;;;13.80;36.70;;;;;;5071598;28;20269;-74
2023/05/11 06:10:06;;;;;;;9.20;8.90;;;13.90;37.70;;;;;;5052417;28;20229;-74
2023/05/11 06:12:31;;;;;;;10.40;10.00;;;13.80;36.90;;;;;;5068626;28;20223;-75
2023/05/11 06:14:57;;;;;;;9.53;9.07;;;13.70;37.80;;;;;;5071463;28;20699;-76
2023/05/11 06:17:22;;;;;;;10.00;9.53;;;13.60;37.90;;;;;;5070029;28;20205;-74
2023/05/11 06:19:49;;;;;;;9.80;9.33;;;13.60;37.70;;;;;;5070669;28;20258;-74
2023/05/11 06:22:14;;;;;;;9.87;9.47;;;13.70;37.70;;;;;;5071069;28;20679;-75
2023/05/11 06:24:39;;;;;;;10.33;9.70;;;13.70;37.60;;;;;;5071227;28;20417;-74
2023/05/11 06:27:05;;;;;;;11.33;10.73;;;13.70;38.00;;;;;;5073400;28;20217;-74
2023/05/11 06:29:31;;;;;;;10.43;9.93;;;13.80;39.20;;;;;;5073398;28;20634;-75
2023/05/11 06:31:57;;;;;;;10.30;9.97;;;13.70;39.40;;;;;;5070444;28;20179;-74
2023/05/11 06:34:23;;;;;;;9.67;9.27;;;13.60;39.60;;;;;;5072049;28;20764;-73
2023/05/11 06:36:48;;;;;;;11.07;10.57;;;13.60;40.30;;;;;;5072164;28;20429;-73
2023/05/11 06:39:14;;;;;;;9.63;9.23;;;13.40;40.40;;;;;;5054670;28;20543;-74
2023/05/11 06:41:39;;;;;;;10.30;9.87;;;13.40;40.20;;;;;;5071419;28;20175;-75
2023/05/11 06:44:05;;;;;;;10.43;10.03;;;13.40;40.80;;;;;;5071971;28;20199;-73
2023/05/11 06:46:30;;;;;;;10.77;10.27;;;13.50;41.40;;;;;;5070775;28;20174;-75
2023/05/11 06:48:56;;;;;;;9.73;9.23;;;13.60;41.70;;;;;;5071093;28;20262;-73
2023/05/11 06:51:22;;;;;;;9.17;8.87;;;13.70;41.90;;;;;;5051862;28;20167;-75
2023/05/11 06:53:48;;;;;;;9.70;9.33;;;13.60;42.10;;;;;;5070771;28;20528;-75
2023/05/11 06:56:14;;;;;;;9.87;9.47;;;13.50;40.40;;;;;;5069489;28;20479;-72
2023/05/11 06:58:39;;;;;;;9.60;9.30;;;13.70;41.10;;;;;;5052136;28;20282;-73
2023/05/11 07:01:06;;;;;;;9.90;9.60;;;13.70;41.40;;;;;;5068740;28;20210;-73
2023/05/11 07:03:33;;;;;;;10.33;9.80;;;13.60;41.60;;;;;;5068473;28;20209;-73
2023/05/11 07:05:58;;;;;;;10.50;10.00;;;13.60;42.30;;;;;;5068433;28;20406;-71
2023/05/11 07:08:24;;;;;;;9.60;9.30;;;13.60;42.00;;;;;;5068780;28;20459;-72
2023/05/11 07:10:50;;;;;;;10.57;10.27;;;13.70;42.00;;;;;;5070323;28;20178;-74
2023/05/11 07:13:15;;;;;;;9.70;9.30;;;13.80;40.80;;;;;;5070399;28;20830;-75
2023/05/11 07:15:41;;;;;;;9.70;9.40;;;13.80;41.40;;;;;;5069587;28;20422;-75
2023/05/11 07:18:06;;;;;;;10.23;9.83;;;13.70;41.50;;;;;;5068177;28;20175;-75
2023/05/11 07:20:32;;;;;;;10.03;9.63;;;13.80;41.80;;;;;;5053008;28;20222;-73
2023/05/11 07:22:58;;;;;;;11.07;10.67;;;14.00;41.10;;;;;;5072810;28;20691;-74
2023/05/11 07:25:24;;;;;;;10.80;10.40;;;14.00;40.40;;;;;;5076335;28;20279;-76
2023/05/11 07:27:49;;;;;;;9.77;9.47;;;14.10;39.90;;;;;;5056810;28;20960;-74
2023/05/11 07:30:16;;;;;;;9.53;9.23;;;14.20;41.80;;;;;;5073964;28;20420;-74
2023/05/11 07:32:41;;;;;;;9.97;9.67;;;14.30;40.20;;;;;;5055829;28;20199;-75
2023/05/11 07:35:07;;;;;;;9.87;9.50;;;14.40;40.00;;;;;;5072075;28;20480;-73
2023/05/11 07:37:33;;;;;;;9.27;8.87;;;14.50;40.40;;;;;;5073191;28;20199;-73
2023/05/11 07:39:58;;;;;;;9.80;9.20;;;14.60;39.50;;;;;;5070097;28;20179;-72
2023/05/11 07:42:24;;;;;;;9.40;9.10;;;14.60;38.60;;;;;;5051100;28;20248;-73
2023/05/11 07:44:50;;;;;;;9.17;8.87;;;14.60;38.80;;;;;;5072393;28;20175;-74
2023/05/11 07:47:17;;;;;;;10.17;9.53;;;14.60;39.50;;;;;;5072225;28;20174;-72
2023/05/11 07:49:43;;;;;;;10.30;10.00;;;14.70;38.80;;;;;;5068173;28;20421;-73
2023/05/11 07:52:09;;;;;;;11.10;10.60;;;14.60;38.80;;;;;;5067722;28;20420;-75
2023/05/11 07:54:34;;;;;;;9.93;9.53;;;14.50;39.80;;;;;;5068123;28;20916;-70
2023/05/11 07:57:00;;;;;;;10.00;9.63;;;14.50;40.50;;;;;;5067726;28;20193;-73
2023/05/11 07:59:26;;;;;;;9.40;9.10;;;14.50;41.10;;;;;;5070134;28;20168;-73
2023/05/11 08:01:51;;;;;;;10.00;9.33;;;14.50;41.10;;;;;;5069409;28;20195;-73
2023/05/11 08:04:17;;;;;;;10.77;10.20;;;14.60;40.60;;;;;;5068321;28;20211;-72
2023/05/11 08:06:43;;;;;;;9.80;9.40;;;14.60;40.00;;;;;;5067874;28;20175;-74
2023/05/11 08:09:09;;;;;;;10.77;10.37;;;14.70;40.20;;;;;;5052534;28;20182;-74
2023/05/11 08:11:34;;;;;;;10.20;9.80;;;14.70;38.90;;;;;;5069265;28;20417;-73
2023/05/11 08:14:00;;;;;;;10.00;9.70;;;14.70;38.90;;;;;;5065051;28;20273;-73
2023/05/11 08:16:25;;;;;;;10.03;9.63;;;14.70;39.70;;;;;;5068561;28;20227;-73
2023/05/11 08:18:51;;;;;;;10.57;10.17;;;14.70;38.90;;;;;;5070555;28;20178;-72
2023/05/11 08:21:16;;;;;;;10.17;9.77;;;14.60;38.40;;;;;;5069856;28;20184;-72
2023/05/11 08:23:42;;;;;;;10.80;10.40;;;14.80;39.00;;;;;;5062653;28;20235;-73
2023/05/11 08:26:07;;;;;;;9.87;9.57;;;14.70;38.60;;;;;;5052592;28;20175;-74
2023/05/11 08:28:33;;;;;;;10.23;9.80;;;14.70;38.80;;;;;;5065208;28;20654;-73
2023/05/11 08:30:59;;;;;;;11.00;10.53;;;14.70;39.80;;;;;;5066775;28;20179;-71
2023/05/11 08:33:26;;;;;;;11.13;10.50;;;14.70;39.60;;;;;;5047783;28;20207;-74
2023/05/11 08:35:52;;;;;;;10.80;10.40;;;14.70;40.40;;;;;;5069918;28;20418;-75
2023/05/11 08:38:20;;;;;;;11.90;11.40;;;14.80;40.70;;;;;;5068946;28;20420;-73
2023/05/11 08:40:47;;;;;;;11.00;10.60;;;14.70;40.10;;;;;;5066950;28;20176;-74
2023/05/11 08:43:15;;;;;;;10.60;10.17;;;14.70;40.30;;;;;;5048856;28;20476;-74
2023/05/11 08:45:46;;;;;;;11.57;11.07;;;14.60;40.70;;;;;;5069659;28;20963;-74
2023/05/11 08:48:13;;;;;;;11.40;10.90;;;14.60;40.70;;;;;;5051569;28;20827;-74
2023/05/11 08:50:39;;;;;;;11.60;11.00;;;14.60;41.00;;;;;;5052634;28;20510;-73
2023/05/11 08:53:05;;;;;;;11.23;10.83;;;14.60;42.00;;;;;;5068664;28;20528;-70
2023/05/11 08:55:32;;;;;;;11.97;11.27;;;14.60;42.20;;;;;;5068682;28;20203;-75
2023/05/11 08:57:59;;;;;;;12.20;11.60;;;14.60;40.60;;;;;;5068807;28;20777;-74
2023/05/11 09:00:25;;;;;;;11.67;10.97;;;14.50;41.10;;;;;;5069537;28;20815;-75
2023/05/11 09:02:51;;;;;;;11.70;11.20;;;14.60;42.80;;;;;;5067663;28;20499;-74
2023/05/11 09:05:17;;;;;;;12.07;11.57;;;14.60;41.70;;;;;;5070135;28;20438;-75
2023/05/11 09:07:46;;;;;;;12.33;11.83;;;14.60;41.20;;;;;;5068624;28;20414;-76
2023/05/11 09:10:12;;;;;;;11.70;11.30;;;14.60;40.20;;;;;;5074525;28;20410;-76
2023/05/11 09:12:37;;;;;;;11.33;10.67;;;14.60;40.50;;;;;;5070010;28;20798;-74
2023/05/11 09:15:03;;;;;;;12.17;11.77;;;14.60;40.50;;;;;;5068706;28;20231;-75
2023/05/11 09:17:29;;;;;;;12.60;12.20;;;14.70;39.90;;;;;;5072263;28;20217;-76
2023/05/11 09:19:59;;;;;;;11.83;11.33;;;14.70;39.30;;;;;;5070631;28;20175;-74
2023/05/11 09:22:26;;;;;;;12.17;11.67;;;14.70;38.50;;;;;;5066544;28;20237;-75
2023/05/11 09:24:52;;;;;;;12.40;11.90;;;14.70;38.60;;;;;;5068727;28;20420;-75
2023/05/11 09:27:17;;;;;;;12.20;11.70;;;14.70;39.30;;;;;;5067418;28;20414;-73
2023/05/11 09:29:43;;;;;;;11.33;10.93;;;14.70;39.00;;;;;;5067158;28;20209;-73
2023/05/11 09:32:08;;;;;;;11.53;11.13;;;14.80;39.10;;;;;;5066867;28;20201;-76
2023/05/11 09:34:34;;;;;;;11.47;11.17;;;14.80;39.10;;;;;;5065762;28;20648;-75
2023/05/11 09:37:00;;;;;;;11.13;10.63;;;14.80;39.60;;;;;;5049846;28;20544;-74
2023/05/11 09:39:29;;;;;;;11.50;11.10;;;14.80;38.70;;;;;;5067543;28;20172;-74
2023/05/11 09:42:20;;;;;;;12.17;11.60;;;14.90;39.30;;;;;;5066260;28;20191;-73
2023/05/11 09:44:46;;;;;;;10.97;10.67;;;14.80;37.80;;;;;;5048944;28;20509;-73
2023/05/11 09:47:12;;;;;;;12.03;11.33;;;14.80;37.70;;;;;;5050618;28;20406;-73
2023/05/11 09:49:42;;;;;;;12.73;12.03;;;14.90;38.60;;;;;;5067981;28;20428;-74
2023/05/11 09:52:12;;;;;;;11.27;10.87;;;14.90;38.00;;;;;;5066707;28;20183;-75
2023/05/11 09:54:42;;;;;;;10.60;10.20;;;14.90;38.00;;;;;;5066655;28;20978;-75
2023/05/11 09:57:22;;;;;;;11.47;11.07;;;14.90;38.90;;;;;;5049702;28;20406;-74
2023/05/11 09:59:48;;;;;;;10.70;10.40;;;15.00;39.30;;;;;;5066741;28;20922;-74
2023/05/11 10:02:33;;;;;;;11.33;10.93;;;15.00;37.40;;;;;;5049312;28;20430;-74
2023/05/11 10:05:00;;;;;;;11.53;11.13;;;14.90;36.30;;;;;;5068865;28;20429;-71
2023/05/11 10:07:34;;;;;;;11.47;10.90;;;14.90;36.90;;;;;;5066215;28;20455;-74
2023/05/11 10:10:01;;;;;;;11.40;11.00;;;14.90;37.40;;;;;;5061689;28;20428;-75
2023/05/11 10:12:29;;;;;;;12.00;11.60;;;14.90;37.90;;;;;;5046982;28;20442;-74
2023/05/11 10:15:00;;;;;;;11.87;11.47;;;14.90;38.60;;;;;;5049411;28;20456;-75
2023/05/11 10:17:27;;;;;;;11.87;11.47;;;14.90;39.20;;;;;;5047087;28;20956;-75
2023/05/11 10:19:55;;;;;;;12.00;11.60;;;14.90;39.70;;;;;;5049057;28;20411;-75
2023/05/11 10:22:22;;;;;;;10.80;10.33;;;14.90;39.70;;;;;;5047849;28;20433;-74
2023/05/11 10:24:48;;;;;;;11.77;11.27;;;14.90;39.80;;;;;;5055335;28;20454;-75
2023/05/11 10:27:14;;;;;;;11.97;11.43;;;14.90;38.80;;;;;;5050649;28;20813;-74
2023/05/11 10:29:41;;;;;;;11.90;11.50;;;15.00;38.60;;;;;;5070252;28;20440;-75
2023/05/11 10:32:07;;;;;;;11.00;10.70;;;15.00;39.30;;;;;;5070363;28;20202;-75
2023/05/11 10:34:33;;;;;;;10.13;9.83;;;15.00;38.20;;;;;;5072460;28;20412;-74
2023/05/11 10:37:00;;;;;;;11.57;11.07;;;15.00;37.10;;;;;;5071390;28;20780;-71
2023/05/11 10:39:28;;;;;;;12.07;11.63;;;14.90;36.10;;;;;;5070622;28;20258;-74
2023/05/11 10:42:00;;;;;;;11.23;10.73;;;14.90;36.30;;;;;;5072441;28;20471;-75
2023/05/11 10:44:48;;;;;;;10.70;10.30;;;14.90;35.80;;;;;;5073579;28;20515;-75
2023/05/11 10:47:40;;;;;;;11.40;10.90;;;14.90;35.90;;;;;;5071140;28;20424;-75
2023/05/11 10:50:33;;;;;;;11.00;10.70;;;14.90;36.50;;;;;;5073442;28;20406;-75
2023/05/11 10:53:17;;;;;;;11.17;10.77;;;14.90;34.50;;;;;;5053996;28;20438;-74
2023/05/11 10:56:05;;;;;;;11.63;11.23;;;14.80;33.10;;;;;;5057054;28;20417;-73
2023/05/11 10:58:46;;;;;;;11.20;10.37;;;14.80;33.60;;;;;;5077019;28;20795;-74
2023/05/11 11:01:38;;;;;;;11.20;10.80;;;14.70;34.60;;;;;;5057381;28;20763;-75
2023/05/11 11:04:05;;;;;;;9.17;8.87;;;14.70;35.50;;;;;;5060146;28;20476;-75
2023/05/11 11:06:33;;;;;;;10.83;10.33;;;14.70;33.70;;;;;;5060070;28;20781;-74
2023/05/11 11:09:07;;;;;;;10.30;10.00;;;14.80;34.30;;;;;;5077597;28;20410;-77
2023/05/11 11:11:38;;;;;;;10.60;10.20;;;14.80;35.70;;;;;;5059840;28;20782;-76
2023/05/11 11:14:04;;;;;;;10.67;10.27;;;14.90;35.80;;;;;;5078316;28;20433;-76
2023/05/11 11:16:32;;;;;;;11.23;10.83;;;14.90;35.80;;;;;;5061227;28;20419;-77
2023/05/11 11:19:31;;;;;;;10.83;10.23;;;14.90;36.50;;;;;;5076094;28;20924;-75
2023/05/11 11:22:01;;;;;;;11.37;10.87;;;14.90;36.80;;;;;;5076700;28;20408;-75
2023/05/11 11:24:35;;;;;;;10.80;10.30;;;14.90;38.10;;;;;;5075801;28;20650;-74
2023/05/11 11:27:01;;;;;;;11.20;10.87;;;14.90;38.30;;;;;;5058914;28;20753;-74
2023/05/11 11:29:28;;;;;;;11.67;11.20;;;15.00;37.50;;;;;;5075375;28;20440;-75
2023/05/11 11:31:54;;;;;;;10.87;10.47;;;15.00;37.90;;;;;;5075667;28;20585;-76
2023/05/11 11:34:28;;;;;;;10.57;10.17;;;15.00;37.40;;;;;;5081182;28;20430;-76
2023/05/11 11:36:54;;;;;;;11.13;10.73;;;15.00;36.40;;;;;;5077268;28;20225;-76
2023/05/11 11:39:21;;;;;;;10.77;10.47;;;15.00;35.10;;;;;;5076011;28;20413;-75
2023/05/11 11:42:03;;;;;;;11.00;10.50;;;15.00;35.00;;;;;;5075717;28;20639;-75
2023/05/11 11:44:29;;;;;;;10.90;10.60;;;14.90;35.20;;;;;;5058736;28;20453;-74
2023/05/11 11:47:15;;;;;;;11.60;11.00;;;14.90;35.40;;;;;;5069508;28;20440;-75
2023/05/11 11:49:42;;;;;;;11.83;11.13;;;14.80;36.10;;;;;;5058905;28;20178;-76
2023/05/11 11:52:27;;;;;;;11.70;11.20;;;14.70;39.50;;;;;;5056746;28;20923;-75
2023/05/11 11:55:02;;;;;;;11.47;10.97;;;14.70;36.50;;;;;;5058523;28;21067;-76
2023/05/11 11:57:34;;;;;;;10.80;10.30;;;14.70;36.20;;;;;;5058327;28;20409;-76
2023/05/11 12:00:05;;;;;;;11.77;11.37;;;14.70;37.10;;;;;;5076584;28;20488;-76
2023/05/11 12:02:32;;;;;;;11.87;11.37;;;14.70;37.00;;;;;;5056708;28;20955;-75
2023/05/11 12:05:00;;;;;;;11.00;10.70;;;14.80;36.70;;;;;;5075245;28;20795;-75
2023/05/11 12:07:32;;;;;;;10.93;10.53;;;14.80;36.10;;;;;;5076430;28;20438;-77
2023/05/11 12:10:02;;;;;;;10.00;9.60;;;14.80;35.70;;;;;;5075490;28;20437;-77
2023/05/11 12:12:29;;;;;;;10.80;10.50;;;14.90;34.30;;;;;;5075508;28;20448;-77
2023/05/11 12:14:56;;;;;;;10.47;10.07;;;14.90;32.90;;;;;;5075120;28;20459;-77
2023/05/11 12:17:24;;;;;;;11.43;11.00;;;14.90;32.30;;;;;;5057049;28;20417;-77
2023/05/11 12:19:50;;;;;;;11.80;11.30;;;15.00;33.30;;;;;;5074898;28;20608;-76
2023/05/11 12:22:24;;;;;;;10.70;10.27;;;15.00;32.90;;;;;;5073379;28;20397;-77
2023/05/11 12:24:53;;;;;;;12.13;11.73;;;15.00;33.00;;;;;;5074749;28;20174;-76
2023/05/11 12:27:19;;;;;;;11.30;10.80;;;15.00;33.00;;;;;;5075211;28;20449;-73
2023/05/11 12:29:49;;;;;;;11.30;10.90;;;15.00;34.50;;;;;;5074433;28;20417;-74
2023/05/11 12:32:14;;;;;;;10.17;9.80;;;14.90;35.10;;;;;;5055571;28;20183;-76
2023/05/11 12:34:40;;;;;;;10.20;9.90;;;14.90;32.50;;;;;;5073962;28;20406;-73
2023/05/11 12:37:05;;;;;;;10.30;10.00;;;15.00;31.50;;;;;;5076000;28;20178;-73
2023/05/11 12:39:31;;;;;;;10.63;10.27;;;14.90;31.50;;;;;;5056740;28;20562;-77